createdAt,value
2022-12-28T00:01:31.425Z,28.60
2022-12-28T00:04:03.232Z,28.48
2022-12-28T00:06:30.238Z,28.25
2022-12-28T00:08:57.815Z,27.08
2022-12-28T00:11:30.830Z,27.88
2022-12-28T00:14:01.514Z,28.92
2022-12-28T00:16:31.116Z,28.42
2022-12-28T00:18:59.608Z,29.88
2022-12-28T00:21:27.317Z,29.13
2022-12-28T00:23:57.940Z,29.17
2022-12-28T00:26:26.433Z,29.35
2022-12-28T00:28:56.855Z,28.15
2022-12-28T00:31:28.431Z,28.92
2022-12-28T00:33:55.150Z,26.83
2022-12-28T00:36:21.878Z,28.98
2022-12-28T00:38:48.509Z,28.23
2022-12-28T00:41:15.137Z,28.05
2022-12-28T00:43:41.726Z,27.40
2022-12-28T00:46:08.654Z,28.35
2022-12-28T00:48:35.352Z,28.15
2022-12-28T00:51:07.829Z,28.77
2022-12-28T00:53:34.970Z,27.35
2022-12-28T00:56:16.367Z,29.10
2022-12-28T00:58:43.703Z,29.58
2022-12-28T01:01:22.241Z,29.08
2022-12-28T01:03:49.481Z,28.50
2022-12-28T01:06:18.506Z,29.10
2022-12-28T01:08:45.102Z,28.75
2022-12-28T01:11:20.819Z,29.92
2022-12-28T01:13:49.082Z,30.55
2022-12-28T01:16:30.946Z,29.17
2022-12-28T01:18:59.809Z,29.92
2022-12-28T01:21:29.755Z,29.42
2022-12-28T01:24:00.627Z,28.67
2022-12-28T01:26:28.206Z,29.65
2022-12-28T01:28:55.010Z,30.10
2022-12-28T01:31:22.096Z,29.10
2022-12-28T01:33:49.323Z,28.30
2022-12-28T01:36:19.894Z,29.70
2022-12-28T01:38:47.113Z,29.00
2022-12-28T01:41:16.759Z,28.60
2022-12-28T01:44:07.971Z,30.05
2022-12-28T01:46:39.968Z,29.05
2022-12-28T01:49:20.229Z,29.42
2022-12-28T01:52:10.029Z,29.42
2022-12-28T01:54:45.372Z,29.98
2022-12-28T01:57:14.197Z,30.00
2022-12-28T01:59:43.629Z,32.05
2022-12-28T02:02:12.399Z,30.80
2022-12-28T02:04:39.323Z,30.75
2022-12-28T02:07:05.915Z,30.13
2022-12-28T02:10:40.444Z,32.55
2022-12-28T02:12:39.674Z,34.65
2022-12-28T02:15:06.725Z,33.47
2022-12-28T02:17:34.264Z,41.72
2022-12-28T02:20:01.078Z,33.92
2022-12-28T02:22:40.043Z,33.72
2022-12-28T02:25:52.198Z,33.97
2022-12-28T02:28:47.811Z,34.53
2022-12-28T02:31:21.250Z,39.88
2022-12-28T02:34:02.419Z,38.20
2022-12-28T02:36:35.309Z,40.55
2022-12-28T02:39:25.271Z,41.60
2022-12-28T02:41:53.173Z,41.50
2022-12-28T02:44:40.388Z,42.45
2022-12-28T02:47:32.705Z,42.67
2022-12-28T02:50:07.959Z,41.45
2022-12-28T02:52:50.843Z,45.67
2022-12-28T02:55:54.570Z,44.30
2022-12-28T02:59:22.516Z,44.85
2022-12-28T03:01:56.654Z,46.20
2022-12-28T03:04:44.796Z,39.17
2022-12-28T03:07:43.456Z,38.15
2022-12-28T03:10:41.714Z,38.05
2022-12-28T03:13:34.350Z,38.20
2022-12-28T03:16:07.180Z,40.10
2022-12-28T03:18:54.557Z,39.78
2022-12-28T03:21:40.903Z,40.08
2022-12-28T03:24:29.194Z,38.17
2022-12-28T03:27:16.988Z,38.65
2022-12-28T03:30:08.346Z,36.67
2022-12-28T03:32:35.251Z,37.22
2022-12-28T03:35:01.986Z,39.40
2022-12-28T03:37:32.944Z,38.95
2022-12-28T03:40:12.017Z,37.78
2022-12-28T03:43:04.481Z,37.65
2022-12-28T03:45:56.414Z,39.20
2022-12-28T03:48:25.193Z,40.75
2022-12-28T03:50:53.215Z,44.72
2022-12-28T03:53:24.881Z,48.00
2022-12-28T03:55:51.494Z,48.08
2022-12-28T03:58:19.305Z,50.13
2022-12-28T04:00:45.858Z,48.83
2022-12-28T04:03:12.451Z,50.55
2022-12-28T04:05:39.054Z,51.13
2022-12-28T04:08:05.611Z,53.17
2022-12-28T04:10:32.153Z,55.58
2022-12-28T04:12:58.695Z,53.33
2022-12-28T04:15:25.267Z,55.15
2022-12-28T04:17:51.785Z,53.83
2022-12-28T04:20:18.353Z,53.03
2022-12-28T04:22:45.025Z,52.85
2022-12-28T04:25:11.700Z,53.33
2022-12-28T04:27:38.262Z,54.92
2022-12-28T04:30:05.594Z,53.38
2022-12-28T04:32:32.180Z,54.78
2022-12-28T04:34:58.764Z,58.42
2022-12-28T04:37:25.305Z,60.33
2022-12-28T04:39:55.123Z,61.53
2022-12-28T04:42:24.935Z,68.30
2022-12-28T04:44:51.822Z,65.63
2022-12-28T04:47:18.438Z,65.63
2022-12-28T04:49:45.041Z,72.47
2022-12-28T04:52:11.783Z,73.35
2022-12-28T04:54:38.409Z,71.78
2022-12-28T04:57:05.069Z,69.05
2022-12-28T04:59:31.624Z,70.40
2022-12-28T05:01:58.288Z,69.93
2022-12-28T05:04:24.944Z,72.68
2022-12-28T05:06:51.543Z,76.35
2022-12-28T05:09:19.511Z,75.97
2022-12-28T05:11:46.178Z,74.53
2022-12-28T05:14:12.753Z,75.85
2022-12-28T05:16:39.523Z,81.70
2022-12-28T05:19:06.214Z,84.93
2022-12-28T05:21:32.886Z,90.38
2022-12-28T05:23:59.709Z,91.20
2022-12-28T05:26:29.120Z,100.85
2022-12-28T05:28:56.829Z,89.45
2022-12-28T05:31:24.004Z,104.60
2022-12-28T05:33:51.053Z,111.03
2022-12-28T05:36:24.303Z,103.53
2022-12-28T05:38:52.696Z,102.88
2022-12-28T05:41:25.860Z,105.22
2022-12-28T05:43:52.833Z,109.82
2022-12-28T05:46:32.402Z,124.15
2022-12-28T05:48:59.987Z,113.93
2022-12-28T05:51:31.434Z,120.13
2022-12-28T05:54:00.050Z,130.30
2022-12-28T05:56:29.318Z,129.23
2022-12-28T05:58:58.736Z,120.72
2022-12-28T06:01:28.391Z,121.65
2022-12-28T06:03:57.781Z,125.25
2022-12-28T06:06:25.427Z,133.85
2022-12-28T06:08:52.452Z,160.80
2022-12-28T06:11:24.701Z,140.05
2022-12-28T06:13:52.042Z,137.52
2022-12-28T06:16:21.400Z,148.98
2022-12-28T06:18:49.011Z,140.43
2022-12-28T06:21:30.032Z,139.32
2022-12-28T06:24:01.280Z,133.40
2022-12-28T06:26:30.228Z,135.93
2022-12-28T06:28:57.352Z,129.00
2022-12-28T06:31:27.031Z,132.63
2022-12-28T06:33:56.200Z,141.73
2022-12-28T06:36:43.281Z,131.80
2022-12-28T06:39:12.686Z,121.70
2022-12-28T06:41:40.156Z,112.22
2022-12-28T06:44:09.203Z,118.88
2022-12-28T06:46:37.198Z,113.60
2022-12-28T06:49:03.990Z,104.15
2022-12-28T06:51:38.704Z,96.18
2022-12-28T06:54:05.423Z,93.28
2022-12-28T06:56:34.148Z,107.63
2022-12-28T06:59:03.642Z,92.45
2022-12-28T07:01:38.963Z,102.28
2022-12-28T07:04:07.870Z,97.43
2022-12-28T07:06:37.919Z,109.75
2022-12-28T07:09:07.360Z,121.72
2022-12-28T07:11:34.146Z,114.43
2022-12-28T07:14:00.751Z,136.68
2022-12-28T07:18:55.935Z,127.57
2022-12-28T07:21:28.516Z,121.40
2022-12-28T07:23:56.206Z,182.55
2022-12-28T07:26:25.805Z,109.35
2022-12-28T07:28:55.061Z,108.88
2022-12-28T07:31:30.739Z,117.18
2022-12-28T07:33:59.380Z,115.07
2022-12-28T07:36:28.042Z,120.43
2022-12-28T07:38:55.058Z,125.75
2022-12-28T07:41:28.070Z,127.63
2022-12-28T07:43:55.028Z,132.00
2022-12-28T07:46:24.460Z,137.35
2022-12-28T07:48:51.889Z,143.55
2022-12-28T07:51:22.906Z,139.48
2022-12-28T07:53:51.657Z,185.52
2022-12-28T07:56:19.760Z,128.95
2022-12-28T07:58:51.792Z,138.77
2022-12-28T08:01:20.240Z,222.93
2022-12-28T08:03:47.394Z,150.73
2022-12-28T08:06:19.964Z,147.27
2022-12-28T08:08:48.885Z,138.60
2022-12-28T08:11:18.388Z,118.95
2022-12-28T08:13:47.395Z,104.28
2022-12-28T08:16:15.601Z,88.95
2022-12-28T08:18:42.651Z,83.05
2022-12-28T08:21:13.743Z,90.78
2022-12-28T08:23:40.704Z,71.35
2022-12-28T08:26:09.268Z,61.65
2022-12-28T08:28:36.623Z,64.35
2022-12-28T08:31:14.997Z,68.70
2022-12-28T08:33:42.515Z,69.60
2022-12-28T08:36:10.436Z,69.93
2022-12-28T08:38:38.451Z,51.33
2022-12-28T08:41:07.651Z,43.35
2022-12-28T08:43:34.903Z,32.05
2022-12-28T08:46:04.211Z,28.98
2022-12-28T08:48:31.279Z,27.02
2022-12-28T08:51:06.938Z,26.35
2022-12-28T08:53:33.868Z,25.23
2022-12-28T08:56:14.844Z,26.30
2022-12-28T08:58:43.343Z,27.38
2022-12-28T09:01:19.859Z,26.23
2022-12-28T09:03:49.422Z,25.50
2022-12-28T09:06:18.990Z,26.55
2022-12-28T09:09:04.871Z,26.75
2022-12-28T09:11:32.326Z,27.23
2022-12-28T09:13:58.944Z,26.80
2022-12-28T09:16:27.852Z,33.33
2022-12-28T09:18:56.558Z,35.50
2022-12-28T09:21:25.558Z,37.17
2022-12-28T09:23:52.359Z,37.05
2022-12-28T09:26:21.105Z,35.67
2022-12-28T09:28:59.864Z,33.67
2022-12-28T09:31:29.515Z,33.67
2022-12-28T09:36:49.205Z,30.50
2022-12-28T09:39:18.980Z,29.23
2022-12-28T09:41:49.262Z,29.25
2022-12-28T09:44:34.598Z,30.50
2022-12-28T09:47:12.565Z,31.17
2022-12-28T09:49:44.922Z,29.38
2022-12-28T09:52:14.396Z,28.23
2022-12-28T09:54:41.838Z,29.55
2022-12-28T09:57:15.266Z,31.02
2022-12-28T09:59:42.340Z,29.95
2022-12-28T10:02:33.759Z,30.17
2022-12-28T10:05:00.406Z,32.50
2022-12-28T10:07:27.002Z,30.27
2022-12-28T10:09:53.826Z,30.85
2022-12-28T10:12:24.392Z,28.17
2022-12-28T10:14:53.145Z,27.73
2022-12-28T10:17:26.708Z,27.27
2022-12-28T10:19:56.725Z,27.93
2022-12-28T10:22:25.562Z,28.63
2022-12-28T10:24:52.963Z,29.65
2022-12-28T10:27:30.968Z,30.17
2022-12-28T10:30:01.600Z,29.90
2022-12-28T10:32:48.808Z,30.02
2022-12-28T10:35:49.215Z,29.65
2022-12-28T10:38:24.422Z,29.50
2022-12-28T10:41:07.008Z,26.02
2022-12-28T10:43:36.851Z,22.75
2022-12-28T10:46:07.499Z,22.48
2022-12-28T10:48:39.262Z,21.38
2022-12-28T10:51:18.569Z,22.90
2022-12-28T10:53:47.735Z,20.63
2022-12-28T10:56:14.246Z,23.00
2022-12-28T10:58:42.858Z,24.73
2022-12-28T11:01:30.216Z,24.50
2022-12-28T11:03:56.957Z,26.08
2022-12-28T11:06:35.700Z,26.67
2022-12-28T11:09:20.670Z,28.33
2022-12-28T11:11:49.802Z,29.65
2022-12-28T11:14:30.814Z,29.27
2022-12-28T11:16:58.166Z,28.38
2022-12-28T11:19:25.990Z,26.75
2022-12-28T11:21:53.480Z,28.15
2022-12-28T11:24:25.663Z,26.80
2022-12-28T11:26:52.670Z,26.92
2022-12-28T11:29:19.713Z,26.48
2022-12-28T11:31:55.294Z,26.27
2022-12-28T11:34:26.750Z,25.67
2022-12-28T11:36:53.963Z,26.95
2022-12-28T11:39:26.572Z,28.25
2022-12-28T11:42:28.011Z,27.65
2022-12-28T11:44:48.930Z,27.35
2022-12-28T11:47:15.458Z,26.92
2022-12-28T11:49:43.549Z,25.42
2022-12-28T11:52:15.867Z,29.58
2022-12-28T11:54:55.544Z,28.38
2022-12-28T11:57:35.604Z,30.02
2022-12-28T12:00:22.180Z,27.33
2022-12-28T12:02:58.042Z,27.02
2022-12-28T12:05:39.486Z,24.45
2022-12-28T12:08:12.117Z,22.13
2022-12-28T12:10:41.601Z,21.08
2022-12-28T12:13:26.479Z,18.27
2022-12-28T12:16:04.125Z,19.50
2022-12-28T12:18:46.176Z,19.50
2022-12-28T12:21:22.193Z,19.85
2022-12-28T12:23:52.780Z,17.95
2022-12-28T12:26:29.607Z,16.88
2022-12-28T12:29:02.747Z,16.92
2022-12-28T12:31:35.541Z,17.20
2022-12-28T12:34:24.202Z,17.85
2022-12-28T12:37:11.271Z,19.08
2022-12-28T12:39:56.295Z,20.40
2022-12-28T12:42:31.921Z,19.90
2022-12-28T12:45:22.945Z,22.15
2022-12-28T12:47:58.281Z,21.83
2022-12-28T12:50:46.999Z,26.55
2022-12-28T12:53:16.544Z,26.55
2022-12-28T12:56:10.325Z,27.38
2022-12-28T12:58:55.424Z,28.13
2022-12-28T13:01:24.711Z,29.05
2022-12-28T13:03:53.915Z,30.70
2022-12-28T13:06:24.473Z,29.55
2022-12-28T13:09:05.413Z,30.38
2022-12-28T13:11:37.589Z,30.92
2022-12-28T13:14:05.409Z,30.75
2022-12-28T13:16:32.685Z,30.58
2022-12-28T13:19:00.718Z,30.25
2022-12-28T13:21:29.868Z,29.20
2022-12-28T13:23:57.499Z,30.17
2022-12-28T13:26:29.580Z,30.98
2022-12-28T13:28:58.493Z,30.50
2022-12-28T13:31:36.168Z,30.52
2022-12-28T13:34:23.475Z,29.08
2022-12-28T13:36:56.780Z,27.63
2022-12-28T13:39:28.309Z,29.02
2022-12-28T13:41:57.858Z,27.40
2022-12-28T13:44:42.906Z,27.77
2022-12-28T13:47:15.927Z,27.70
2022-12-28T13:49:49.628Z,27.98
2022-12-28T13:52:23.227Z,29.30
2022-12-28T13:54:55.366Z,29.20
2022-12-28T14:00:11.252Z,26.88
2022-12-28T14:02:41.522Z,27.88
2022-12-28T14:05:15.312Z,27.63
2022-12-28T14:07:42.225Z,27.90
2022-12-28T14:10:11.000Z,27.27
2022-12-28T14:12:38.893Z,26.95
2022-12-28T14:15:07.111Z,27.20
2022-12-28T14:17:34.947Z,28.35
2022-12-28T14:20:01.684Z,26.75
2022-12-28T14:22:36.078Z,26.10
2022-12-28T14:25:08.943Z,27.33
2022-12-28T14:27:39.863Z,26.48
2022-12-28T14:30:08.857Z,26.90
2022-12-28T14:32:42.396Z,25.55
2022-12-28T14:35:18.242Z,25.67
2022-12-28T14:37:46.599Z,25.70
2022-12-28T14:40:26.452Z,26.30
2022-12-28T14:42:54.871Z,25.40
2022-12-28T14:46:07.614Z,24.95
2022-12-28T14:48:38.298Z,26.75
2022-12-28T14:51:17.686Z,26.02
2022-12-28T14:53:45.563Z,25.52
2022-12-28T14:56:18.706Z,25.42
2022-12-28T14:58:58.623Z,24.90
2022-12-28T15:01:44.982Z,25.63
2022-12-28T15:04:39.537Z,25.95
2022-12-28T15:07:09.185Z,25.42
2022-12-28T15:09:36.626Z,27.40
2022-12-28T15:12:20.493Z,29.30
2022-12-28T15:14:47.579Z,28.23
2022-12-28T15:17:14.215Z,27.77
2022-12-28T15:19:42.783Z,28.63
2022-12-28T15:22:09.481Z,27.90
2022-12-28T15:24:36.323Z,28.15
2022-12-28T15:27:03.497Z,29.55
2022-12-28T15:32:16.773Z,28.67
2022-12-28T15:34:43.383Z,28.45
2022-12-28T15:37:09.922Z,29.20
2022-12-28T15:39:36.757Z,29.80
2022-12-28T15:42:03.447Z,30.55
2022-12-28T15:44:30.002Z,31.42
2022-12-28T15:46:56.644Z,38.90
2022-12-28T15:49:23.267Z,41.20
2022-12-28T15:51:49.992Z,39.33
2022-12-28T15:54:16.669Z,36.92
2022-12-28T15:56:43.255Z,37.58
2022-12-28T15:59:14.425Z,39.17
2022-12-28T16:01:43.412Z,41.58
2022-12-28T16:04:10.729Z,42.88
2022-12-28T16:06:43.830Z,71.28
2022-12-28T16:09:12.017Z,39.53
2022-12-28T16:11:38.591Z,39.30
2022-12-28T16:14:07.251Z,33.83
2022-12-28T16:16:38.426Z,32.83
2022-12-28T16:19:06.911Z,34.25
2022-12-28T16:21:33.799Z,34.15
2022-12-28T16:24:00.612Z,33.15
2022-12-28T16:26:28.026Z,33.13
2022-12-28T16:28:54.665Z,32.20
2022-12-28T16:31:32.598Z,33.13
2022-12-28T16:34:07.844Z,31.33
2022-12-28T16:36:34.998Z,29.92
2022-12-28T16:39:04.629Z,29.42
2022-12-28T16:41:36.482Z,29.08
2022-12-28T16:44:12.307Z,27.00
2022-12-28T16:46:39.073Z,27.15
2022-12-28T16:49:05.695Z,26.83
2022-12-28T16:51:32.543Z,27.25
2022-12-28T16:53:59.110Z,28.05
2022-12-28T16:56:25.886Z,27.40
2022-12-28T16:58:56.820Z,27.27
2022-12-28T17:01:23.783Z,27.30
2022-12-28T17:03:51.918Z,27.35
2022-12-28T17:06:19.076Z,27.02
2022-12-28T17:08:45.711Z,28.30
2022-12-28T17:11:12.737Z,27.98
2022-12-28T17:13:39.595Z,26.95
2022-12-28T17:16:07.031Z,25.92
2022-12-28T17:18:33.770Z,25.77
2022-12-28T17:21:04.902Z,27.85
2022-12-28T17:23:33.527Z,28.48
2022-12-28T17:26:00.101Z,27.98
2022-12-28T17:28:26.740Z,27.75
2022-12-28T17:31:06.744Z,29.95
2022-12-28T17:33:38.936Z,31.08
2022-12-28T17:36:06.757Z,31.60
2022-12-28T17:38:33.300Z,31.35
2022-12-28T17:40:59.847Z,30.83
2022-12-28T17:43:26.413Z,29.25
2022-12-28T17:45:54.620Z,30.05
2022-12-28T17:48:26.958Z,30.38
2022-12-28T17:50:53.569Z,27.85
2022-12-28T17:53:20.096Z,28.25
2022-12-28T17:55:46.847Z,28.35
2022-12-28T17:58:13.421Z,28.67
2022-12-28T18:00:39.984Z,32.03
2022-12-28T18:03:06.685Z,34.05
2022-12-28T18:05:34.601Z,35.45
2022-12-28T18:08:01.186Z,34.83
2022-12-28T18:10:27.787Z,34.20
2022-12-28T18:12:55.687Z,33.92
2022-12-28T18:15:22.270Z,33.30
2022-12-28T18:17:48.887Z,32.97
2022-12-28T18:20:16.158Z,32.97
2022-12-28T18:22:42.710Z,30.95
2022-12-28T18:25:09.651Z,31.63
2022-12-28T18:27:36.725Z,31.30
2022-12-28T18:30:03.796Z,36.15
2022-12-28T18:32:30.387Z,33.47
2022-12-28T18:34:56.993Z,31.75
2022-12-28T18:37:23.586Z,31.98
2022-12-28T18:39:50.130Z,29.90
2022-12-28T18:42:18.419Z,28.48
2022-12-28T18:44:46.266Z,28.40
2022-12-28T18:47:13.520Z,27.73
2022-12-28T18:49:45.480Z,26.15
2022-12-28T18:52:15.069Z,28.48
2022-12-28T18:54:41.739Z,28.02
2022-12-28T18:57:09.086Z,26.55
2022-12-28T18:59:35.888Z,27.88
2022-12-28T19:02:06.954Z,27.13
2022-12-28T19:04:35.189Z,27.77
2022-12-28T19:07:01.872Z,25.88
2022-12-28T19:09:28.444Z,24.23
2022-12-28T19:11:55.490Z,23.63
2022-12-28T19:14:22.205Z,22.10
2022-12-28T19:16:48.763Z,23.48
2022-12-28T19:19:17.222Z,24.63
2022-12-28T19:21:44.111Z,24.45
2022-12-28T19:24:18.714Z,26.05
2022-12-28T19:26:46.785Z,28.98
2022-12-28T19:29:15.508Z,29.30
2022-12-28T19:31:42.339Z,28.67
2022-12-28T19:34:09.048Z,29.00
2022-12-28T19:36:35.574Z,28.13
2022-12-28T19:39:02.157Z,26.83
2022-12-28T19:41:28.764Z,27.75
2022-12-28T19:43:55.482Z,29.00
2022-12-28T19:46:31.139Z,29.67
2022-12-28T19:49:02.143Z,29.50
2022-12-28T19:51:31.722Z,30.73
2022-12-28T19:54:00.960Z,27.77
2022-12-28T19:56:27.704Z,28.90
2022-12-28T19:58:59.456Z,28.00
2022-12-28T20:01:30.352Z,26.48
2022-12-28T20:03:57.228Z,24.83
2022-12-28T20:06:27.150Z,24.60
2022-12-28T20:09:01.902Z,25.80
2022-12-28T20:14:02.110Z,24.90
2022-12-28T20:16:30.954Z,24.20
2022-12-28T20:18:57.667Z,25.63
2022-12-28T20:21:25.824Z,25.23
2022-12-28T20:23:54.119Z,25.38
2022-12-28T20:26:22.460Z,25.52
2022-12-28T20:28:50.103Z,27.05
2022-12-28T20:31:16.768Z,26.65
2022-12-28T20:33:44.116Z,25.85
2022-12-28T20:36:22.144Z,27.52
2022-12-28T20:38:49.320Z,26.90
2022-12-28T20:41:38.960Z,26.52
2022-12-28T20:44:11.754Z,26.83
2022-12-28T20:46:38.517Z,26.67
2022-12-28T20:49:05.632Z,25.45
2022-12-28T20:51:32.534Z,25.88
2022-12-28T20:53:59.115Z,26.33
2022-12-28T20:56:25.833Z,25.73
2022-12-28T20:58:52.352Z,27.33
2022-12-28T21:01:19.476Z,27.60
2022-12-28T21:03:46.477Z,26.95
2022-12-28T21:06:13.394Z,26.77
2022-12-28T21:08:40.412Z,26.83
2022-12-28T21:11:07.128Z,29.00
2022-12-28T21:13:34.697Z,28.33
2022-12-28T21:16:06.087Z,28.95
2022-12-28T21:18:33.355Z,28.85
2022-12-28T21:21:00.304Z,27.42
2022-12-28T21:23:28.082Z,27.83
2022-12-28T21:26:06.605Z,27.63
2022-12-28T21:28:34.895Z,29.45
2022-12-28T21:31:03.818Z,28.65
2022-12-28T21:33:31.779Z,29.00
2022-12-28T21:36:06.456Z,29.17
2022-12-28T21:41:06.598Z,31.20
2022-12-28T21:43:33.466Z,29.27
2022-12-28T21:46:03.256Z,31.65
2022-12-28T21:48:35.645Z,32.65
2022-12-28T21:51:28.269Z,32.97
2022-12-28T21:53:55.376Z,32.85
2022-12-28T21:56:22.188Z,34.00
2022-12-28T21:58:50.031Z,35.20
2022-12-28T22:01:35.648Z,35.72
2022-12-28T22:04:23.294Z,34.92
2022-12-28T22:06:49.880Z,36.45
2022-12-28T22:09:34.860Z,38.30
2022-12-28T22:12:20.030Z,39.47
2022-12-28T22:17:14.687Z,36.90
2022-12-28T22:19:41.636Z,39.17
2022-12-28T22:22:08.283Z,41.75
2022-12-28T22:24:34.876Z,41.03
2022-12-28T22:27:01.465Z,43.47
2022-12-28T22:29:28.043Z,45.88
2022-12-28T22:31:54.741Z,52.58
2022-12-28T22:34:21.433Z,44.65
2022-12-28T22:36:48.055Z,49.20
2022-12-28T22:39:14.676Z,47.97
2022-12-28T22:41:41.243Z,53.40
2022-12-28T22:44:09.840Z,54.25
2022-12-28T22:46:36.456Z,54.05
2022-12-28T22:49:03.170Z,58.92
2022-12-28T22:51:29.826Z,58.38
2022-12-28T22:53:56.363Z,56.08
2022-12-28T22:56:22.975Z,57.15
2022-12-28T22:58:49.515Z,62.35
2022-12-28T23:01:18.667Z,63.85
2022-12-28T23:03:47.270Z,62.50
2022-12-28T23:06:16.667Z,67.18
2022-12-28T23:08:43.456Z,67.50
2022-12-28T23:11:34.021Z,69.10
2022-12-28T23:14:21.357Z,66.53
2022-12-28T23:16:48.548Z,67.72
2022-12-28T23:19:34.837Z,70.00
2022-12-28T23:22:21.416Z,68.80
2022-12-28T23:25:06.376Z,76.88
2022-12-28T23:27:39.614Z,74.57
2022-12-28T23:30:09.781Z,75.00
2022-12-28T23:32:36.375Z,77.53
2022-12-28T23:35:03.986Z,84.82
2022-12-28T23:37:31.176Z,82.43
2022-12-28T23:39:57.754Z,86.85
2022-12-28T23:42:24.317Z,84.90
2022-12-28T23:44:50.862Z,81.18
2022-12-28T23:47:18.644Z,83.38
2022-12-28T23:49:45.664Z,81.85
2022-12-28T23:52:12.859Z,84.53
2022-12-28T23:54:39.500Z,82.18
2022-12-28T23:57:06.163Z,123.28
2022-12-28T23:59:32.737Z,80.00
